sensor_id;sensor_type;location;lat;lon;timestamp;P1;durP1;ratioP1;P2;durP2;ratioP2
54235;SDS011;40151;43.606;1.472;2023-09-19T00:01:39;4.13;;;1.70;;
54235;SDS011;40151;43.606;1.472;2023-09-19T00:04:05;4.75;;;1.60;;
54235;SDS011;40151;43.606;1.472;2023-09-19T00:06:38;4.00;;;1.83;;
54235;SDS011;40151;43.606;1.472;2023-09-19T00:09:04;7.60;;;2.38;;
54235;SDS011;40151;43.606;1.472;2023-09-19T00:11:29;5.45;;;1.83;;
54235;SDS011;40151;43.606;1.472;2023-09-19T00:13:56;3.63;;;1.42;;
54235;SDS011;40151;43.606;1.472;2023-09-19T00:16:22;3.95;;;1.60;;
54235;SDS011;40151;43.606;1.472;2023-09-19T00:18:47;5.03;;;1.98;;
54235;SDS011;40151;43.606;1.472;2023-09-19T00:21:14;5.50;;;2.00;;
54235;SDS011;40151;43.606;1.472;2023-09-19T00:23:40;4.43;;;1.65;;
54235;SDS011;40151;43.606;1.472;2023-09-19T00:26:06;4.25;;;1.70;;
54235;SDS011;40151;43.606;1.472;2023-09-19T00:28:31;5.13;;;1.98;;
54235;SDS011;40151;43.606;1.472;2023-09-19T00:30:57;3.85;;;1.58;;
54235;SDS011;40151;43.606;1.472;2023-09-19T00:33:26;4.85;;;1.75;;
54235;SDS011;40151;43.606;1.472;2023-09-19T00:35:54;4.15;;;1.85;;
54235;SDS011;40151;43.606;1.472;2023-09-19T00:38:21;5.80;;;1.95;;
54235;SDS011;40151;43.606;1.472;2023-09-19T00:40:49;5.78;;;1.80;;
54235;SDS011;40151;43.606;1.472;2023-09-19T00:43:19;4.88;;;2.00;;
54235;SDS011;40151;43.606;1.472;2023-09-19T00:45:46;3.90;;;1.60;;
54235;SDS011;40151;43.606;1.472;2023-09-19T00:48:13;5.13;;;1.88;;
54235;SDS011;40151;43.606;1.472;2023-09-19T00:50:41;4.43;;;1.88;;
54235;SDS011;40151;43.606;1.472;2023-09-19T00:53:08;4.55;;;1.70;;
54235;SDS011;40151;43.606;1.472;2023-09-19T00:55:34;4.50;;;1.70;;
54235;SDS011;40151;43.606;1.472;2023-09-19T00:58:02;4.85;;;1.60;;
54235;SDS011;40151;43.606;1.472;2023-09-19T01:00:28;4.57;;;1.60;;
54235;SDS011;40151;43.606;1.472;2023-09-19T01:02:54;4.93;;;1.80;;
54235;SDS011;40151;43.606;1.472;2023-09-19T01:05:19;4.43;;;1.90;;
54235;SDS011;40151;43.606;1.472;2023-09-19T01:07:45;4.13;;;2.03;;
54235;SDS011;40151;43.606;1.472;2023-09-19T01:10:14;5.13;;;1.60;;
54235;SDS011;40151;43.606;1.472;2023-09-19T01:29:34;6.68;;;1.95;;
54235;SDS011;40151;43.606;1.472;2023-09-19T01:32:04;4.75;;;1.70;;
54235;SDS011;40151;43.606;1.472;2023-09-19T01:34:44;6.00;;;1.98;;
54235;SDS011;40151;43.606;1.472;2023-09-19T01:37:18;4.35;;;1.77;;
54235;SDS011;40151;43.606;1.472;2023-09-19T01:39:49;4.47;;;1.70;;
54235;SDS011;40151;43.606;1.472;2023-09-19T01:42:20;3.25;;;1.33;;
54235;SDS011;40151;43.606;1.472;2023-09-19T01:47:52;3.78;;;1.27;;
54235;SDS011;40151;43.606;1.472;2023-09-19T01:53:07;3.58;;;1.38;;
54235;SDS011;40151;43.606;1.472;2023-09-19T01:55:41;4.32;;;1.50;;
54235;SDS011;40151;43.606;1.472;2023-09-19T02:03:39;5.40;;;1.90;;
54235;SDS011;40151;43.606;1.472;2023-09-19T02:06:06;4.95;;;1.60;;
54235;SDS011;40151;43.606;1.472;2023-09-19T02:08:36;3.53;;;1.45;;
54235;SDS011;40151;43.606;1.472;2023-09-19T02:11:02;4.85;;;1.67;;
54235;SDS011;40151;43.606;1.472;2023-09-19T02:13:27;4.07;;;1.75;;
54235;SDS011;40151;43.606;1.472;2023-09-19T02:15:53;3.30;;;1.65;;
54235;SDS011;40151;43.606;1.472;2023-09-19T02:18:18;3.28;;;1.65;;
54235;SDS011;40151;43.606;1.472;2023-09-19T02:20:45;4.50;;;1.70;;
54235;SDS011;40151;43.606;1.472;2023-09-19T02:23:11;3.10;;;1.55;;
54235;SDS011;40151;43.606;1.472;2023-09-19T02:25:37;3.40;;;1.52;;
54235;SDS011;40151;43.606;1.472;2023-09-19T02:28:04;4.65;;;1.52;;
54235;SDS011;40151;43.606;1.472;2023-09-19T02:30:30;4.30;;;1.80;;
54235;SDS011;40151;43.606;1.472;2023-09-19T02:32:56;4.28;;;1.73;;
54235;SDS011;40151;43.606;1.472;2023-09-19T02:35:22;5.10;;;2.10;;
54235;SDS011;40151;43.606;1.472;2023-09-19T02:37:47;2.92;;;1.50;;
54235;SDS011;40151;43.606;1.472;2023-09-19T02:40:14;4.03;;;1.85;;
54235;SDS011;40151;43.606;1.472;2023-09-19T02:42:52;3.30;;;1.35;;
54235;SDS011;40151;43.606;1.472;2023-09-19T02:45:18;5.55;;;1.83;;
54235;SDS011;40151;43.606;1.472;2023-09-19T02:47:44;4.53;;;1.75;;
54235;SDS011;40151;43.606;1.472;2023-09-19T02:50:11;4.57;;;1.80;;
54235;SDS011;40151;43.606;1.472;2023-09-19T02:52:37;3.47;;;1.70;;
54235;SDS011;40151;43.606;1.472;2023-09-19T02:55:03;5.18;;;1.85;;
54235;SDS011;40151;43.606;1.472;2023-09-19T02:57:31;3.92;;;1.63;;
54235;SDS011;40151;43.606;1.472;2023-09-19T02:59:58;6.18;;;1.70;;
54235;SDS011;40151;43.606;1.472;2023-09-19T03:02:25;4.07;;;1.60;;
54235;SDS011;40151;43.606;1.472;2023-09-19T03:04:52;5.18;;;1.50;;
54235;SDS011;40151;43.606;1.472;2023-09-19T03:07:18;5.15;;;1.83;;
54235;SDS011;40151;43.606;1.472;2023-09-19T03:09:44;5.30;;;1.70;;
54235;SDS011;40151;43.606;1.472;2023-09-19T03:12:10;4.18;;;1.70;;
54235;SDS011;40151;43.606;1.472;2023-09-19T03:14:35;5.55;;;1.70;;
54235;SDS011;40151;43.606;1.472;2023-09-19T03:17:01;5.30;;;2.00;;
54235;SDS011;40151;43.606;1.472;2023-09-19T03:19:29;3.60;;;1.45;;
54235;SDS011;40151;43.606;1.472;2023-09-19T03:21:55;4.78;;;2.00;;
54235;SDS011;40151;43.606;1.472;2023-09-19T03:24:22;4.20;;;1.55;;
54235;SDS011;40151;43.606;1.472;2023-09-19T03:26:48;5.10;;;1.58;;
54235;SDS011;40151;43.606;1.472;2023-09-19T03:29:14;5.35;;;1.88;;
54235;SDS011;40151;43.606;1.472;2023-09-19T03:31:40;3.97;;;1.63;;
54235;SDS011;40151;43.606;1.472;2023-09-19T03:34:06;5.10;;;1.65;;
54235;SDS011;40151;43.606;1.472;2023-09-19T03:36:34;5.18;;;1.80;;
54235;SDS011;40151;43.606;1.472;2023-09-19T03:39:00;5.10;;;2.00;;
54235;SDS011;40151;43.606;1.472;2023-09-19T03:41:26;3.65;;;1.40;;
54235;SDS011;40151;43.606;1.472;2023-09-19T03:43:52;4.47;;;1.35;;
54235;SDS011;40151;43.606;1.472;2023-09-19T03:46:18;3.47;;;1.67;;
54235;SDS011;40151;43.606;1.472;2023-09-19T03:48:43;5.68;;;1.80;;
54235;SDS011;40151;43.606;1.472;2023-09-19T03:51:09;4.72;;;1.40;;
54235;SDS011;40151;43.606;1.472;2023-09-19T03:53:34;4.55;;;1.48;;
54235;SDS011;40151;43.606;1.472;2023-09-19T03:56:00;2.72;;;1.35;;
54235;SDS011;40151;43.606;1.472;2023-09-19T03:58:26;3.58;;;1.55;;
54235;SDS011;40151;43.606;1.472;2023-09-19T04:00:54;4.50;;;1.55;;
54235;SDS011;40151;43.606;1.472;2023-09-19T04:03:20;4.43;;;1.77;;
54235;SDS011;40151;43.606;1.472;2023-09-19T04:05:46;5.60;;;1.80;;
54235;SDS011;40151;43.606;1.472;2023-09-19T04:08:14;4.90;;;1.55;;
54235;SDS011;40151;43.606;1.472;2023-09-19T04:10:43;3.83;;;1.75;;
54235;SDS011;40151;43.606;1.472;2023-09-19T04:13:09;3.75;;;1.65;;
54235;SDS011;40151;43.606;1.472;2023-09-19T04:15:35;4.65;;;1.25;;
54235;SDS011;40151;43.606;1.472;2023-09-19T04:18:02;5.30;;;1.80;;
54235;SDS011;40151;43.606;1.472;2023-09-19T04:20:28;4.03;;;1.90;;
54235;SDS011;40151;43.606;1.472;2023-09-19T04:22:54;4.18;;;1.77;;
54235;SDS011;40151;43.606;1.472;2023-09-19T04:25:19;5.40;;;1.63;;
54235;SDS011;40151;43.606;1.472;2023-09-19T04:27:45;5.15;;;1.20;;
54235;SDS011;40151;43.606;1.472;2023-09-19T04:30:11;5.35;;;1.98;;
54235;SDS011;40151;43.606;1.472;2023-09-19T04:32:38;3.88;;;1.70;;
54235;SDS011;40151;43.606;1.472;2023-09-19T04:35:07;5.20;;;1.70;;
54235;SDS011;40151;43.606;1.472;2023-09-19T04:37:34;4.70;;;1.63;;
54235;SDS011;40151;43.606;1.472;2023-09-19T04:40:07;3.90;;;1.60;;
54235;SDS011;40151;43.606;1.472;2023-09-19T04:42:37;4.65;;;1.90;;
54235;SDS011;40151;43.606;1.472;2023-09-19T04:45:04;4.30;;;1.55;;
54235;SDS011;40151;43.606;1.472;2023-09-19T04:47:30;4.05;;;1.73;;
54235;SDS011;40151;43.606;1.472;2023-09-19T04:49:55;4.25;;;1.60;;
54235;SDS011;40151;43.606;1.472;2023-09-19T04:52:23;3.63;;;1.42;;
54235;SDS011;40151;43.606;1.472;2023-09-19T04:54:48;5.50;;;1.60;;
54235;SDS011;40151;43.606;1.472;2023-09-19T04:57:14;4.20;;;1.50;;
54235;SDS011;40151;43.606;1.472;2023-09-19T04:59:40;4.65;;;1.60;;
54235;SDS011;40151;43.606;1.472;2023-09-19T05:02:06;4.93;;;1.80;;
54235;SDS011;40151;43.606;1.472;2023-09-19T05:04:33;4.82;;;1.55;;
54235;SDS011;40151;43.606;1.472;2023-09-19T05:06:58;4.40;;;1.58;;
54235;SDS011;40151;43.606;1.472;2023-09-19T05:09:26;6.38;;;1.95;;
54235;SDS011;40151;43.606;1.472;2023-09-19T05:11:51;4.20;;;1.67;;
54235;SDS011;40151;43.606;1.472;2023-09-19T05:14:17;3.70;;;1.52;;
54235;SDS011;40151;43.606;1.472;2023-09-19T05:16:44;4.03;;;1.40;;
54235;SDS011;40151;43.606;1.472;2023-09-19T05:19:09;3.30;;;1.45;;
54235;SDS011;40151;43.606;1.472;2023-09-19T05:21:36;5.13;;;1.70;;
54235;SDS011;40151;43.606;1.472;2023-09-19T05:24:04;4.22;;;1.50;;
54235;SDS011;40151;43.606;1.472;2023-09-19T05:26:31;3.58;;;1.60;;
54235;SDS011;40151;43.606;1.472;2023-09-19T05:28:57;5.43;;;1.90;;
54235;SDS011;40151;43.606;1.472;2023-09-19T05:31:22;5.35;;;1.77;;
54235;SDS011;40151;43.606;1.472;2023-09-19T05:33:49;5.82;;;1.80;;
54235;SDS011;40151;43.606;1.472;2023-09-19T05:36:15;6.88;;;1.90;;
54235;SDS011;40151;43.606;1.472;2023-09-19T05:38:42;3.75;;;1.95;;
54235;SDS011;40151;43.606;1.472;2023-09-19T05:41:10;5.10;;;1.77;;
54235;SDS011;40151;43.606;1.472;2023-09-19T05:43:38;3.70;;;1.70;;
54235;SDS011;40151;43.606;1.472;2023-09-19T05:46:05;5.90;;;1.95;;
54235;SDS011;40151;43.606;1.472;2023-09-19T05:48:33;4.55;;;1.70;;
54235;SDS011;40151;43.606;1.472;2023-09-19T05:50:58;4.50;;;1.40;;
54235;SDS011;40151;43.606;1.472;2023-09-19T05:53:24;3.90;;;1.63;;
54235;SDS011;40151;43.606;1.472;2023-09-19T05:55:49;3.92;;;1.65;;
54235;SDS011;40151;43.606;1.472;2023-09-19T05:58:15;5.03;;;1.67;;
54235;SDS011;40151;43.606;1.472;2023-09-19T06:00:42;6.15;;;2.40;;
54235;SDS011;40151;43.606;1.472;2023-09-19T06:03:09;4.85;;;1.95;;
54235;SDS011;40151;43.606;1.472;2023-09-19T06:05:36;4.10;;;1.58;;
54235;SDS011;40151;43.606;1.472;2023-09-19T06:08:05;5.03;;;1.83;;
54235;SDS011;40151;43.606;1.472;2023-09-19T06:10:32;4.25;;;1.70;;
54235;SDS011;40151;43.606;1.472;2023-09-19T06:13:02;4.85;;;1.85;;
54235;SDS011;40151;43.606;1.472;2023-09-19T06:15:31;5.63;;;1.77;;
54235;SDS011;40151;43.606;1.472;2023-09-19T06:17:58;5.10;;;1.55;;
54235;SDS011;40151;43.606;1.472;2023-09-19T06:20:25;5.25;;;1.90;;
54235;SDS011;40151;43.606;1.472;2023-09-19T06:22:51;4.63;;;1.77;;
54235;SDS011;40151;43.606;1.472;2023-09-19T06:25:17;5.07;;;2.03;;
54235;SDS011;40151;43.606;1.472;2023-09-19T06:27:50;6.15;;;2.03;;
54235;SDS011;40151;43.606;1.472;2023-09-19T06:30:18;4.53;;;1.60;;
54235;SDS011;40151;43.606;1.472;2023-09-19T06:32:45;5.13;;;1.88;;
54235;SDS011;40151;43.606;1.472;2023-09-19T06:35:14;5.35;;;1.63;;
54235;SDS011;40151;43.606;1.472;2023-09-19T06:37:41;3.97;;;1.60;;
54235;SDS011;40151;43.606;1.472;2023-09-19T06:40:08;4.22;;;1.65;;
54235;SDS011;40151;43.606;1.472;2023-09-19T06:42:45;3.47;;;1.40;;
54235;SDS011;40151;43.606;1.472;2023-09-19T06:45:11;4.47;;;1.80;;
54235;SDS011;40151;43.606;1.472;2023-09-19T06:47:42;4.82;;;1.92;;
54235;SDS011;40151;43.606;1.472;2023-09-19T06:50:08;3.70;;;1.80;;
54235;SDS011;40151;43.606;1.472;2023-09-19T06:52:38;4.00;;;1.50;;
54235;SDS011;40151;43.606;1.472;2023-09-19T06:55:07;4.70;;;1.58;;
54235;SDS011;40151;43.606;1.472;2023-09-19T06:57:34;4.28;;;1.63;;
54235;SDS011;40151;43.606;1.472;2023-09-19T06:59:59;3.88;;;1.63;;
54235;SDS011;40151;43.606;1.472;2023-09-19T07:02:26;5.38;;;1.77;;
54235;SDS011;40151;43.606;1.472;2023-09-19T07:04:52;4.38;;;1.95;;
54235;SDS011;40151;43.606;1.472;2023-09-19T07:07:17;4.82;;;1.60;;
54235;SDS011;40151;43.606;1.472;2023-09-19T07:09:43;3.85;;;1.70;;
54235;SDS011;40151;43.606;1.472;2023-09-19T07:12:08;3.95;;;1.55;;
54235;SDS011;40151;43.606;1.472;2023-09-19T07:14:33;3.67;;;1.42;;
54235;SDS011;40151;43.606;1.472;2023-09-19T07:16:59;5.15;;;1.98;;
54235;SDS011;40151;43.606;1.472;2023-09-19T07:19:28;3.38;;;1.73;;
54235;SDS011;40151;43.606;1.472;2023-09-19T07:21:55;5.30;;;1.90;;
54235;SDS011;40151;43.606;1.472;2023-09-19T07:24:20;4.32;;;1.80;;
54235;SDS011;40151;43.606;1.472;2023-09-19T07:26:49;4.40;;;1.70;;
54235;SDS011;40151;43.606;1.472;2023-09-19T07:29:15;5.82;;;1.80;;
54235;SDS011;40151;43.606;1.472;2023-09-19T07:31:40;4.25;;;1.77;;
54235;SDS011;40151;43.606;1.472;2023-09-19T07:34:05;4.15;;;1.80;;
54235;SDS011;40151;43.606;1.472;2023-09-19T07:36:32;5.50;;;1.60;;
54235;SDS011;40151;43.606;1.472;2023-09-19T07:38:59;3.70;;;1.63;;
54235;SDS011;40151;43.606;1.472;2023-09-19T07:41:25;4.13;;;1.63;;
54235;SDS011;40151;43.606;1.472;2023-09-19T07:43:50;4.22;;;1.77;;
54235;SDS011;40151;43.606;1.472;2023-09-19T07:46:16;3.65;;;1.63;;
54235;SDS011;40151;43.606;1.472;2023-09-19T07:48:41;6.10;;;1.98;;
54235;SDS011;40151;43.606;1.472;2023-09-19T07:51:09;4.13;;;1.60;;
54235;SDS011;40151;43.606;1.472;2023-09-19T07:53:35;4.85;;;1.63;;
54235;SDS011;40151;43.606;1.472;2023-09-19T07:56:04;5.53;;;1.88;;
54235;SDS011;40151;43.606;1.472;2023-09-19T07:58:30;4.82;;;1.83;;
54235;SDS011;40151;43.606;1.472;2023-09-19T08:00:56;3.90;;;1.63;;
54235;SDS011;40151;43.606;1.472;2023-09-19T08:03:27;4.57;;;2.10;;
54235;SDS011;40151;43.606;1.472;2023-09-19T08:05:52;4.03;;;1.90;;
54235;SDS011;40151;43.606;1.472;2023-09-19T08:08:18;4.60;;;1.50;;
54235;SDS011;40151;43.606;1.472;2023-09-19T08:10:43;3.95;;;1.70;;
54235;SDS011;40151;43.606;1.472;2023-09-19T08:13:10;3.70;;;1.67;;
54235;SDS011;40151;43.606;1.472;2023-09-19T08:15:42;3.50;;;1.70;;
54235;SDS011;40151;43.606;1.472;2023-09-19T08:18:09;5.18;;;1.70;;
54235;SDS011;40151;43.606;1.472;2023-09-19T08:20:38;4.32;;;1.80;;
54235;SDS011;40151;43.606;1.472;2023-09-19T08:23:03;4.90;;;2.13;;
54235;SDS011;40151;43.606;1.472;2023-09-19T08:25:29;4.13;;;1.67;;
54235;SDS011;40151;43.606;1.472;2023-09-19T08:27:55;5.90;;;1.58;;
54235;SDS011;40151;43.606;1.472;2023-09-19T08:30:23;3.67;;;1.95;;
54235;SDS011;40151;43.606;1.472;2023-09-19T08:32:51;3.53;;;1.50;;
54235;SDS011;40151;43.606;1.472;2023-09-19T08:35:16;4.85;;;1.63;;
54235;SDS011;40151;43.606;1.472;2023-09-19T08:37:42;4.32;;;1.80;;
54235;SDS011;40151;43.606;1.472;2023-09-19T08:40:10;3.50;;;1.70;;
54235;SDS011;40151;43.606;1.472;2023-09-19T08:42:54;3.90;;;1.40;;
54235;SDS011;40151;43.606;1.472;2023-09-19T08:45:24;4.32;;;1.65;;
54235;SDS011;40151;43.606;1.472;2023-09-19T08:54:13;4.45;;;1.55;;
54235;SDS011;40151;43.606;1.472;2023-09-19T08:56:15;5.00;;;2.10;;
54235;SDS011;40151;43.606;1.472;2023-09-19T08:58:55;4.53;;;1.77;;
54235;SDS011;40151;43.606;1.472;2023-09-19T09:01:26;4.60;;;1.65;;
54235;SDS011;40151;43.606;1.472;2023-09-19T09:03:53;6.50;;;1.65;;
54235;SDS011;40151;43.606;1.472;2023-09-19T09:06:23;4.93;;;1.83;;
54235;SDS011;40151;43.606;1.472;2023-09-19T09:08:50;5.68;;;1.95;;
54235;SDS011;40151;43.606;1.472;2023-09-19T09:11:16;5.03;;;1.60;;
54235;SDS011;40151;43.606;1.472;2023-09-19T09:13:45;6.38;;;1.83;;
54235;SDS011;40151;43.606;1.472;2023-09-19T09:16:12;5.50;;;1.80;;
54235;SDS011;40151;43.606;1.472;2023-09-19T09:18:39;4.05;;;1.42;;
54235;SDS011;40151;43.606;1.472;2023-09-19T09:21:06;6.70;;;2.10;;
54235;SDS011;40151;43.606;1.472;2023-09-19T09:23:31;4.10;;;1.45;;
54235;SDS011;40151;43.606;1.472;2023-09-19T09:25:58;6.22;;;1.77;;
54235;SDS011;40151;43.606;1.472;2023-09-19T09:28:28;5.75;;;1.95;;
54235;SDS011;40151;43.606;1.472;2023-09-19T09:30:56;4.47;;;1.42;;
54235;SDS011;40151;43.606;1.472;2023-09-19T09:33:23;3.45;;;1.20;;
54235;SDS011;40151;43.606;1.472;2023-09-19T09:35:52;4.05;;;1.33;;
54235;SDS011;40151;43.606;1.472;2023-09-19T09:38:21;6.35;;;2.00;;
54235;SDS011;40151;43.606;1.472;2023-09-19T09:40:57;4.13;;;1.42;;
54235;SDS011;40151;43.606;1.472;2023-09-19T09:43:36;5.28;;;1.65;;
54235;SDS011;40151;43.606;1.472;2023-09-19T09:46:07;5.47;;;2.22;;
54235;SDS011;40151;43.606;1.472;2023-09-19T09:51:39;4.50;;;1.70;;
54235;SDS011;40151;43.606;1.472;2023-09-19T09:54:17;4.95;;;1.48;;
54235;SDS011;40151;43.606;1.472;2023-09-19T09:59:45;3.55;;;1.63;;
54235;SDS011;40151;43.606;1.472;2023-09-19T10:02:18;3.47;;;1.20;;
54235;SDS011;40151;43.606;1.472;2023-09-19T10:04:56;4.97;;;1.60;;
54235;SDS011;40151;43.606;1.472;2023-09-19T10:07:35;4.90;;;1.48;;
54235;SDS011;40151;43.606;1.472;2023-09-19T10:10:03;5.35;;;1.55;;
54235;SDS011;40151;43.606;1.472;2023-09-19T10:12:35;2.97;;;1.20;;
54235;SDS011;40151;43.606;1.472;2023-09-19T10:15:07;4.07;;;1.42;;
54235;SDS011;40151;43.606;1.472;2023-09-19T10:17:36;5.43;;;1.45;;
54235;SDS011;40151;43.606;1.472;2023-09-19T10:20:05;3.90;;;1.52;;
54235;SDS011;40151;43.606;1.472;2023-09-19T10:22:42;6.00;;;1.63;;
54235;SDS011;40151;43.606;1.472;2023-09-19T10:25:21;4.07;;;1.67;;
54235;SDS011;40151;43.606;1.472;2023-09-19T10:27:50;5.00;;;1.60;;
54235;SDS011;40151;43.606;1.472;2023-09-19T10:30:18;5.30;;;1.63;;
54235;SDS011;40151;43.606;1.472;2023-09-19T10:32:45;3.75;;;1.33;;
54235;SDS011;40151;43.606;1.472;2023-09-19T10:35:16;4.22;;;1.42;;
54235;SDS011;40151;43.606;1.472;2023-09-19T10:37:43;4.97;;;1.60;;
54235;SDS011;40151;43.606;1.472;2023-09-19T10:40:15;5.43;;;1.40;;
54235;SDS011;40151;43.606;1.472;2023-09-19T10:42:41;4.38;;;1.30;;
54235;SDS011;40151;43.606;1.472;2023-09-19T10:45:07;5.18;;;1.40;;
54235;SDS011;40151;43.606;1.472;2023-09-19T10:47:38;3.35;;;1.30;;
54235;SDS011;40151;43.606;1.472;2023-09-19T10:50:05;3.78;;;1.40;;
54235;SDS011;40151;43.606;1.472;2023-09-19T10:52:38;3.42;;;1.20;;
54235;SDS011;40151;43.606;1.472;2023-09-19T10:55:07;3.55;;;1.33;;
54235;SDS011;40151;43.606;1.472;2023-09-19T10:57:34;2.53;;;1.15;;
54235;SDS011;40151;43.606;1.472;2023-09-19T11:00:07;5.10;;;1.60;;
54235;SDS011;40151;43.606;1.472;2023-09-19T11:05:42;3.55;;;1.20;;
54235;SDS011;40151;43.606;1.472;2023-09-19T11:08:08;4.03;;;1.30;;
54235;SDS011;40151;43.606;1.472;2023-09-19T11:10:47;4.07;;;1.42;;
54235;SDS011;40151;43.606;1.472;2023-09-19T11:13:28;4.68;;;1.40;;
54235;SDS011;40151;43.606;1.472;2023-09-19T11:27:12;4.10;;;1.40;;
54235;SDS011;40151;43.606;1.472;2023-09-19T11:29:39;3.65;;;1.27;;
54235;SDS011;40151;43.606;1.472;2023-09-19T11:32:05;4.13;;;1.33;;
54235;SDS011;40151;43.606;1.472;2023-09-19T11:39:36;4.80;;;1.30;;
54235;SDS011;40151;43.606;1.472;2023-09-19T11:42:40;3.42;;;1.08;;
54235;SDS011;40151;43.606;1.472;2023-09-19T11:45:42;3.78;;;1.35;;
54235;SDS011;40151;43.606;1.472;2023-09-19T11:48:14;4.20;;;1.48;;
54235;SDS011;40151;43.606;1.472;2023-09-19T11:50:47;2.55;;;1.00;;
54235;SDS011;40151;43.606;1.472;2023-09-19T11:53:14;3.97;;;1.27;;
54235;SDS011;40151;43.606;1.472;2023-09-19T11:55:41;3.05;;;1.08;;
54235;SDS011;40151;43.606;1.472;2023-09-19T11:58:10;3.13;;;1.10;;
54235;SDS011;40151;43.606;1.472;2023-09-19T12:00:38;3.38;;;1.15;;
54235;SDS011;40151;43.606;1.472;2023-09-19T12:03:09;2.40;;;1.10;;
54235;SDS011;40151;43.606;1.472;2023-09-19T12:05:36;4.10;;;1.20;;
54235;SDS011;40151;43.606;1.472;2023-09-19T12:08:03;4.88;;;1.40;;
54235;SDS011;40151;43.606;1.472;2023-09-19T12:10:32;3.33;;;1.20;;
54235;SDS011;40151;43.606;1.472;2023-09-19T12:12:58;4.28;;;1.30;;
54235;SDS011;40151;43.606;1.472;2023-09-19T12:15:27;2.58;;;1.00;;
54235;SDS011;40151;43.606;1.472;2023-09-19T12:17:53;2.85;;;1.10;;
54235;SDS011;40151;43.606;1.472;2023-09-19T12:20:19;3.08;;;1.20;;
54235;SDS011;40151;43.606;1.472;2023-09-19T12:22:46;3.42;;;1.10;;
54235;SDS011;40151;43.606;1.472;2023-09-19T12:25:12;3.97;;;1.60;;
54235;SDS011;40151;43.606;1.472;2023-09-19T12:27:44;2.83;;;1.00;;
54235;SDS011;40151;43.606;1.472;2023-09-19T12:30:21;3.13;;;1.02;;
54235;SDS011;40151;43.606;1.472;2023-09-19T12:32:53;3.95;;;1.10;;
54235;SDS011;40151;43.606;1.472;2023-09-19T12:35:36;3.28;;;1.15;;
54235;SDS011;40151;43.606;1.472;2023-09-19T12:38:04;4.05;;;1.40;;
54235;SDS011;40151;43.606;1.472;2023-09-19T12:40:30;3.38;;;1.23;;
54235;SDS011;40151;43.606;1.472;2023-09-19T12:42:58;2.80;;;0.93;;
54235;SDS011;40151;43.606;1.472;2023-09-19T12:45:24;2.08;;;0.90;;
54235;SDS011;40151;43.606;1.472;2023-09-19T12:51:01;3.83;;;1.38;;
54235;SDS011;40151;43.606;1.472;2023-09-19T12:53:28;3.60;;;1.15;;
54235;SDS011;40151;43.606;1.472;2023-09-19T12:56:00;2.88;;;1.20;;
54235;SDS011;40151;43.606;1.472;2023-09-19T12:58:26;3.58;;;1.10;;
54235;SDS011;40151;43.606;1.472;2023-09-19T13:00:52;2.30;;;0.90;;
54235;SDS011;40151;43.606;1.472;2023-09-19T13:03:24;2.20;;;1.00;;
54235;SDS011;40151;43.606;1.472;2023-09-19T13:06:00;2.65;;;0.90;;
54235;SDS011;40151;43.606;1.472;2023-09-19T13:08:31;3.60;;;1.20;;
54235;SDS011;40151;43.606;1.472;2023-09-19T13:13:34;4.57;;;1.30;;
54235;SDS011;40151;43.606;1.472;2023-09-19T13:16:02;2.42;;;0.85;;
54235;SDS011;40151;43.606;1.472;2023-09-19T13:18:29;2.72;;;1.00;;
54235;SDS011;40151;43.606;1.472;2023-09-19T13:21:10;2.80;;;0.98;;
54235;SDS011;40151;43.606;1.472;2023-09-19T13:23:51;3.35;;;1.10;;
54235;SDS011;40151;43.606;1.472;2023-09-19T13:26:18;3.20;;;1.00;;
54235;SDS011;40151;43.606;1.472;2023-09-19T13:28:44;2.35;;;0.90;;
54235;SDS011;40151;43.606;1.472;2023-09-19T13:31:10;2.88;;;0.95;;
54235;SDS011;40151;43.606;1.472;2023-09-19T13:33:42;3.63;;;1.00;;
54235;SDS011;40151;43.606;1.472;2023-09-19T13:36:08;4.05;;;1.33;;
54235;SDS011;40151;43.606;1.472;2023-09-19T13:38:34;3.42;;;0.82;;
54235;SDS011;40151;43.606;1.472;2023-09-19T13:41:00;2.25;;;0.90;;
54235;SDS011;40151;43.606;1.472;2023-09-19T13:43:27;1.98;;;1.00;;
54235;SDS011;40151;43.606;1.472;2023-09-19T13:45:53;3.15;;;1.13;;
54235;SDS011;40151;43.606;1.472;2023-09-19T13:48:19;2.60;;;1.00;;
54235;SDS011;40151;43.606;1.472;2023-09-19T13:50:47;3.28;;;1.00;;
54235;SDS011;40151;43.606;1.472;2023-09-19T13:53:13;3.30;;;1.30;;
54235;SDS011;40151;43.606;1.472;2023-09-19T13:55:39;2.78;;;0.98;;
54235;SDS011;40151;43.606;1.472;2023-09-19T13:58:05;2.70;;;0.90;;
54235;SDS011;40151;43.606;1.472;2023-09-19T14:00:32;3.45;;;1.20;;
54235;SDS011;40151;43.606;1.472;2023-09-19T14:02:59;3.63;;;0.88;;
54235;SDS011;40151;43.606;1.472;2023-09-19T14:05:26;2.20;;;0.73;;
54235;SDS011;40151;43.606;1.472;2023-09-19T14:07:53;2.97;;;0.85;;
54235;SDS011;40151;43.606;1.472;2023-09-19T14:10:21;2.45;;;0.93;;
54235;SDS011;40151;43.606;1.472;2023-09-19T14:12:46;3.72;;;0.93;;
54235;SDS011;40151;43.606;1.472;2023-09-19T14:15:12;2.50;;;0.88;;
54235;SDS011;40151;43.606;1.472;2023-09-19T14:17:38;3.03;;;0.70;;
54235;SDS011;40151;43.606;1.472;2023-09-19T14:20:04;2.60;;;0.85;;
54235;SDS011;40151;43.606;1.472;2023-09-19T14:22:32;2.50;;;0.82;;
54235;SDS011;40151;43.606;1.472;2023-09-19T14:24:58;2.38;;;0.77;;
54235;SDS011;40151;43.606;1.472;2023-09-19T14:27:24;2.88;;;0.88;;
54235;SDS011;40151;43.606;1.472;2023-09-19T14:29:50;2.97;;;0.90;;
54235;SDS011;40151;43.606;1.472;2023-09-19T14:32:16;2.38;;;0.73;;
54235;SDS011;40151;43.606;1.472;2023-09-19T14:34:42;2.90;;;0.90;;
54235;SDS011;40151;43.606;1.472;2023-09-19T14:37:09;2.97;;;0.88;;
54235;SDS011;40151;43.606;1.472;2023-09-19T14:39:36;3.00;;;0.93;;
54235;SDS011;40151;43.606;1.472;2023-09-19T14:42:03;2.17;;;0.88;;
54235;SDS011;40151;43.606;1.472;2023-09-19T14:44:29;2.75;;;0.80;;
54235;SDS011;40151;43.606;1.472;2023-09-19T14:46:55;2.58;;;0.82;;
54235;SDS011;40151;43.606;1.472;2023-09-19T14:49:20;2.67;;;1.05;;
54235;SDS011;40151;43.606;1.472;2023-09-19T14:51:46;2.28;;;0.98;;
54235;SDS011;40151;43.606;1.472;2023-09-19T14:54:13;2.50;;;0.90;;
54235;SDS011;40151;43.606;1.472;2023-09-19T14:56:41;2.67;;;0.80;;
54235;SDS011;40151;43.606;1.472;2023-09-19T14:59:07;4.00;;;1.08;;
54235;SDS011;40151;43.606;1.472;2023-09-19T15:01:33;2.33;;;0.80;;
54235;SDS011;40151;43.606;1.472;2023-09-19T15:03:58;2.78;;;0.90;;
54235;SDS011;40151;43.606;1.472;2023-09-19T15:06:25;2.53;;;0.88;;
54235;SDS011;40151;43.606;1.472;2023-09-19T15:08:52;2.55;;;0.70;;
54235;SDS011;40151;43.606;1.472;2023-09-19T15:11:18;1.95;;;0.82;;
54235;SDS011;40151;43.606;1.472;2023-09-19T15:13:44;3.67;;;0.82;;
54235;SDS011;40151;43.606;1.472;2023-09-19T15:16:10;2.80;;;1.10;;
54235;SDS011;40151;43.606;1.472;2023-09-19T15:18:39;3.67;;;1.00;;
54235;SDS011;40151;43.606;1.472;2023-09-19T15:21:07;2.67;;;0.90;;
54235;SDS011;40151;43.606;1.472;2023-09-19T15:23:34;2.95;;;0.93;;
54235;SDS011;40151;43.606;1.472;2023-09-19T15:26:01;2.83;;;1.08;;
54235;SDS011;40151;43.606;1.472;2023-09-19T15:28:27;3.83;;;1.23;;
54235;SDS011;40151;43.606;1.472;2023-09-19T15:31:07;3.60;;;1.13;;
54235;SDS011;40151;43.606;1.472;2023-09-19T15:33:34;3.28;;;1.13;;
54235;SDS011;40151;43.606;1.472;2023-09-19T15:38:29;2.80;;;1.13;;
54235;SDS011;40151;43.606;1.472;2023-09-19T15:40:54;3.55;;;1.20;;
54235;SDS011;40151;43.606;1.472;2023-09-19T15:43:20;5.03;;;1.40;;
54235;SDS011;40151;43.606;1.472;2023-09-19T15:45:46;4.10;;;1.77;;
54235;SDS011;40151;43.606;1.472;2023-09-19T15:48:14;3.25;;;1.30;;
54235;SDS011;40151;43.606;1.472;2023-09-19T15:50:39;4.38;;;1.42;;
54235;SDS011;40151;43.606;1.472;2023-09-19T15:53:07;4.18;;;1.55;;
54235;SDS011;40151;43.606;1.472;2023-09-19T15:55:36;4.00;;;1.63;;
54235;SDS011;40151;43.606;1.472;2023-09-19T15:58:04;3.88;;;1.65;;
54235;SDS011;40151;43.606;1.472;2023-09-19T16:00:31;4.85;;;1.50;;